sensor_id;sensor_type;location;lat;lon;timestamp;P1;durP1;ratioP1;P2;durP2;ratioP2
35644;SDS011;21764;52.042;6.830;2022-07-06T00:03:31;11.32;;;3.20;;
35644;SDS011;21764;52.042;6.830;2022-07-06T00:08:32;11.00;;;3.47;;
35644;SDS011;21764;52.042;6.830;2022-07-06T00:13:33;6.25;;;3.40;;
35644;SDS011;21764;52.042;6.830;2022-07-06T00:18:34;5.85;;;3.00;;
35644;SDS011;21764;52.042;6.830;2022-07-06T00:23:35;7.93;;;3.80;;
35644;SDS011;21764;52.042;6.830;2022-07-06T00:28:35;9.05;;;3.47;;
35644;SDS011;21764;52.042;6.830;2022-07-06T00:33:36;10.30;;;4.00;;
35644;SDS011;21764;52.042;6.830;2022-07-06T00:38:37;6.88;;;3.60;;
35644;SDS011;21764;52.042;6.830;2022-07-06T00:43:56;5.65;;;3.20;;
35644;SDS011;21764;52.042;6.830;2022-07-06T00:48:57;7.75;;;3.53;;
35644;SDS011;21764;52.042;6.830;2022-07-06T00:53:59;8.63;;;3.40;;
35644;SDS011;21764;52.042;6.830;2022-07-06T00:59:03;6.78;;;3.13;;
35644;SDS011;21764;52.042;6.830;2022-07-06T01:04:03;7.40;;;3.65;;
35644;SDS011;21764;52.042;6.830;2022-07-06T01:09:04;7.68;;;3.42;;
35644;SDS011;21764;52.042;6.830;2022-07-06T01:14:05;7.15;;;3.40;;
35644;SDS011;21764;52.042;6.830;2022-07-06T01:19:07;6.22;;;3.38;;
35644;SDS011;21764;52.042;6.830;2022-07-06T01:24:08;5.95;;;3.00;;
35644;SDS011;21764;52.042;6.830;2022-07-06T01:29:09;6.97;;;2.92;;
35644;SDS011;21764;52.042;6.830;2022-07-06T01:34:10;6.60;;;2.83;;
35644;SDS011;21764;52.042;6.830;2022-07-06T01:39:11;5.55;;;2.85;;
35644;SDS011;21764;52.042;6.830;2022-07-06T01:44:12;8.07;;;2.80;;
35644;SDS011;21764;52.042;6.830;2022-07-06T01:49:12;5.93;;;2.90;;
35644;SDS011;21764;52.042;6.830;2022-07-06T01:54:13;8.38;;;2.92;;
35644;SDS011;21764;52.042;6.830;2022-07-06T01:59:14;5.65;;;3.00;;
35644;SDS011;21764;52.042;6.830;2022-07-06T02:04:14;10.75;;;2.92;;
35644;SDS011;21764;52.042;6.830;2022-07-06T02:09:15;11.38;;;3.45;;
35644;SDS011;21764;52.042;6.830;2022-07-06T02:14:16;11.20;;;3.30;;
35644;SDS011;21764;52.042;6.830;2022-07-06T02:19:17;6.93;;;2.75;;
35644;SDS011;21764;52.042;6.830;2022-07-06T02:24:18;8.23;;;3.30;;
35644;SDS011;21764;52.042;6.830;2022-07-06T02:29:18;6.95;;;3.05;;
35644;SDS011;21764;52.042;6.830;2022-07-06T02:34:19;12.63;;;4.13;;
35644;SDS011;21764;52.042;6.830;2022-07-06T02:39:20;9.73;;;3.75;;
35644;SDS011;21764;52.042;6.830;2022-07-06T02:44:21;10.45;;;3.17;;
35644;SDS011;21764;52.042;6.830;2022-07-06T02:49:21;11.15;;;3.13;;
35644;SDS011;21764;52.042;6.830;2022-07-06T02:54:22;4.05;;;2.72;;
35644;SDS011;21764;52.042;6.830;2022-07-06T02:59:23;10.50;;;3.78;;
35644;SDS011;21764;52.042;6.830;2022-07-06T03:04:23;13.32;;;3.47;;
35644;SDS011;21764;52.042;6.830;2022-07-06T03:09:24;8.80;;;3.65;;
35644;SDS011;21764;52.042;6.830;2022-07-06T03:14:25;6.63;;;3.50;;
35644;SDS011;21764;52.042;6.830;2022-07-06T03:19:25;8.98;;;3.65;;
35644;SDS011;21764;52.042;6.830;2022-07-06T03:24:26;7.97;;;3.28;;
35644;SDS011;21764;52.042;6.830;2022-07-06T03:29:27;6.40;;;2.88;;
35644;SDS011;21764;52.042;6.830;2022-07-06T03:34:28;14.25;;;3.00;;
35644;SDS011;21764;52.042;6.830;2022-07-06T03:39:29;7.20;;;2.70;;
35644;SDS011;21764;52.042;6.830;2022-07-06T03:44:29;10.70;;;3.10;;
35644;SDS011;21764;52.042;6.830;2022-07-06T03:49:30;8.18;;;3.03;;
35644;SDS011;21764;52.042;6.830;2022-07-06T03:54:30;10.23;;;3.60;;
35644;SDS011;21764;52.042;6.830;2022-07-06T03:59:31;7.18;;;2.60;;
35644;SDS011;21764;52.042;6.830;2022-07-06T04:04:33;10.38;;;2.80;;
35644;SDS011;21764;52.042;6.830;2022-07-06T04:09:34;10.43;;;2.92;;
35644;SDS011;21764;52.042;6.830;2022-07-06T04:14:35;7.43;;;3.00;;
35644;SDS011;21764;52.042;6.830;2022-07-06T04:19:36;8.35;;;2.65;;
35644;SDS011;21764;52.042;6.830;2022-07-06T04:24:36;8.85;;;2.75;;
35644;SDS011;21764;52.042;6.830;2022-07-06T04:29:37;10.13;;;2.85;;
35644;SDS011;21764;52.042;6.830;2022-07-06T04:34:37;9.40;;;2.55;;
35644;SDS011;21764;52.042;6.830;2022-07-06T04:39:38;10.40;;;2.92;;
35644;SDS011;21764;52.042;6.830;2022-07-06T04:44:39;9.27;;;2.55;;
35644;SDS011;21764;52.042;6.830;2022-07-06T04:49:39;13.07;;;2.65;;
35644;SDS011;21764;52.042;6.830;2022-07-06T04:54:40;13.27;;;3.03;;
35644;SDS011;21764;52.042;6.830;2022-07-06T04:59:41;5.88;;;2.50;;
35644;SDS011;21764;52.042;6.830;2022-07-06T05:04:42;11.13;;;2.75;;
35644;SDS011;21764;52.042;6.830;2022-07-06T05:09:42;8.25;;;3.00;;
35644;SDS011;21764;52.042;6.830;2022-07-06T05:14:43;8.18;;;2.75;;
35644;SDS011;21764;52.042;6.830;2022-07-06T05:19:43;7.80;;;2.58;;
35644;SDS011;21764;52.042;6.830;2022-07-06T05:24:44;9.55;;;2.55;;
35644;SDS011;21764;52.042;6.830;2022-07-06T05:29:45;5.60;;;2.20;;
35644;SDS011;21764;52.042;6.830;2022-07-06T05:34:45;19.65;;;3.58;;
35644;SDS011;21764;52.042;6.830;2022-07-06T05:39:46;25.88;;;4.38;;
35644;SDS011;21764;52.042;6.830;2022-07-06T05:44:49;10.00;;;2.78;;
35644;SDS011;21764;52.042;6.830;2022-07-06T05:49:52;12.18;;;3.05;;
35644;SDS011;21764;52.042;6.830;2022-07-06T05:55:14;10.23;;;2.42;;
35644;SDS011;21764;52.042;6.830;2022-07-06T06:00:15;7.10;;;2.00;;
35644;SDS011;21764;52.042;6.830;2022-07-06T06:05:16;10.73;;;2.70;;
35644;SDS011;21764;52.042;6.830;2022-07-06T06:10:18;6.30;;;1.90;;
35644;SDS011;21764;52.042;6.830;2022-07-06T06:15:21;4.30;;;1.80;;
35644;SDS011;21764;52.042;6.830;2022-07-06T06:20:22;7.80;;;2.03;;
35644;SDS011;21764;52.042;6.830;2022-07-06T06:30:41;8.18;;;2.45;;
35644;SDS011;21764;52.042;6.830;2022-07-06T06:35:42;10.05;;;2.08;;
35644;SDS011;21764;52.042;6.830;2022-07-06T06:40:44;9.68;;;2.33;;
35644;SDS011;21764;52.042;6.830;2022-07-06T06:45:45;8.65;;;2.45;;
35644;SDS011;21764;52.042;6.830;2022-07-06T06:50:46;3.55;;;1.60;;
35644;SDS011;21764;52.042;6.830;2022-07-06T06:55:47;7.32;;;2.42;;
35644;SDS011;21764;52.042;6.830;2022-07-06T07:00:47;7.90;;;1.95;;
35644;SDS011;21764;52.042;6.830;2022-07-06T07:05:48;6.18;;;1.92;;
35644;SDS011;21764;52.042;6.830;2022-07-06T07:10:49;6.35;;;1.75;;
35644;SDS011;21764;52.042;6.830;2022-07-06T07:15:50;6.70;;;1.52;;
35644;SDS011;21764;52.042;6.830;2022-07-06T07:20:50;11.70;;;1.70;;
35644;SDS011;21764;52.042;6.830;2022-07-06T07:25:51;9.40;;;1.63;;
35644;SDS011;21764;52.042;6.830;2022-07-06T07:30:51;8.07;;;1.90;;
35644;SDS011;21764;52.042;6.830;2022-07-06T07:35:52;8.40;;;1.75;;
35644;SDS011;21764;52.042;6.830;2022-07-06T07:40:53;7.57;;;1.83;;
35644;SDS011;21764;52.042;6.830;2022-07-06T07:45:54;11.88;;;1.92;;
35644;SDS011;21764;52.042;6.830;2022-07-06T07:50:55;5.07;;;1.50;;
35644;SDS011;21764;52.042;6.830;2022-07-06T07:55:55;5.35;;;1.70;;
35644;SDS011;21764;52.042;6.830;2022-07-06T08:00:56;6.97;;;1.70;;
35644;SDS011;21764;52.042;6.830;2022-07-06T08:05:57;5.55;;;1.25;;
35644;SDS011;21764;52.042;6.830;2022-07-06T08:10:58;5.25;;;1.33;;
35644;SDS011;21764;52.042;6.830;2022-07-06T08:15:59;6.63;;;1.48;;
35644;SDS011;21764;52.042;6.830;2022-07-06T08:21:00;9.85;;;1.52;;
35644;SDS011;21764;52.042;6.830;2022-07-06T08:26:01;5.00;;;1.30;;
35644;SDS011;21764;52.042;6.830;2022-07-06T08:31:02;4.50;;;1.20;;
35644;SDS011;21764;52.042;6.830;2022-07-06T08:36:03;5.65;;;1.40;;
35644;SDS011;21764;52.042;6.830;2022-07-06T08:41:04;7.53;;;1.10;;
35644;SDS011;21764;52.042;6.830;2022-07-06T08:46:06;7.07;;;1.30;;
35644;SDS011;21764;52.042;6.830;2022-07-06T08:51:09;7.55;;;0.95;;
35644;SDS011;21764;52.042;6.830;2022-07-06T08:56:12;4.75;;;1.00;;
35644;SDS011;21764;52.042;6.830;2022-07-06T09:01:13;3.88;;;0.77;;
35644;SDS011;21764;52.042;6.830;2022-07-06T09:06:16;5.22;;;1.10;;
35644;SDS011;21764;52.042;6.830;2022-07-06T09:11:20;7.00;;;1.40;;
35644;SDS011;21764;52.042;6.830;2022-07-06T09:16:28;4.50;;;1.30;;
35644;SDS011;21764;52.042;6.830;2022-07-06T09:21:30;3.72;;;1.20;;
35644;SDS011;21764;52.042;6.830;2022-07-06T09:26:32;5.15;;;0.85;;
35644;SDS011;21764;52.042;6.830;2022-07-06T09:31:35;4.85;;;1.00;;
35644;SDS011;21764;52.042;6.830;2022-07-06T09:41:39;4.47;;;1.60;;
35644;SDS011;21764;52.042;6.830;2022-07-06T09:46:40;4.45;;;0.70;;
35644;SDS011;21764;52.042;6.830;2022-07-06T09:51:42;5.05;;;1.08;;
35644;SDS011;21764;52.042;6.830;2022-07-06T09:56:47;5.28;;;1.30;;
35644;SDS011;21764;52.042;6.830;2022-07-06T10:01:51;3.83;;;1.15;;
35644;SDS011;21764;52.042;6.830;2022-07-06T10:06:55;4.60;;;1.27;;
35644;SDS011;21764;52.042;6.830;2022-07-06T10:11:57;4.27;;;0.80;;
35644;SDS011;21764;52.042;6.830;2022-07-06T10:17:00;2.67;;;0.70;;
35644;SDS011;21764;52.042;6.830;2022-07-06T10:22:02;6.25;;;0.90;;
35644;SDS011;21764;52.042;6.830;2022-07-06T10:27:04;3.13;;;0.77;;
35644;SDS011;21764;52.042;6.830;2022-07-06T10:32:05;2.55;;;0.60;;
35644;SDS011;21764;52.042;6.830;2022-07-06T10:37:07;4.75;;;0.75;;
35644;SDS011;21764;52.042;6.830;2022-07-06T10:47:46;5.00;;;0.90;;
35644;SDS011;21764;52.042;6.830;2022-07-06T10:52:50;3.00;;;0.70;;
35644;SDS011;21764;52.042;6.830;2022-07-06T10:57:58;2.45;;;0.80;;
35644;SDS011;21764;52.042;6.830;2022-07-06T11:03:22;7.38;;;1.00;;
35644;SDS011;21764;52.042;6.830;2022-07-06T11:08:47;5.78;;;0.70;;
35644;SDS011;21764;52.042;6.830;2022-07-06T11:19:18;3.58;;;0.80;;
35644;SDS011;21764;52.042;6.830;2022-07-06T11:24:25;4.07;;;1.00;;
35644;SDS011;21764;52.042;6.830;2022-07-06T11:29:27;3.40;;;0.93;;
35644;SDS011;21764;52.042;6.830;2022-07-06T11:34:33;3.40;;;0.70;;
35644;SDS011;21764;52.042;6.830;2022-07-06T11:39:36;3.22;;;0.70;;
35644;SDS011;21764;52.042;6.830;2022-07-06T11:44:41;4.95;;;0.70;;
35644;SDS011;21764;52.042;6.830;2022-07-06T11:49:42;2.55;;;0.90;;
35644;SDS011;21764;52.042;6.830;2022-07-06T11:54:45;4.70;;;0.80;;
35644;SDS011;21764;52.042;6.830;2022-07-06T11:59:46;3.10;;;0.70;;
35644;SDS011;21764;52.042;6.830;2022-07-06T12:04:48;2.05;;;1.05;;
35644;SDS011;21764;52.042;6.830;2022-07-06T12:09:50;3.53;;;0.60;;
35644;SDS011;21764;52.042;6.830;2022-07-06T12:14:51;4.43;;;0.60;;
35644;SDS011;21764;52.042;6.830;2022-07-06T12:19:53;2.50;;;0.43;;
35644;SDS011;21764;52.042;6.830;2022-07-06T12:24:55;2.35;;;0.55;;
35644;SDS011;21764;52.042;6.830;2022-07-06T12:30:07;2.08;;;0.80;;
35644;SDS011;21764;52.042;6.830;2022-07-06T12:35:11;1.15;;;0.60;;
35644;SDS011;21764;52.042;6.830;2022-07-06T12:40:13;1.50;;;0.50;;
35644;SDS011;21764;52.042;6.830;2022-07-06T12:45:15;1.95;;;0.57;;
35644;SDS011;21764;52.042;6.830;2022-07-06T12:50:15;2.55;;;0.50;;
35644;SDS011;21764;52.042;6.830;2022-07-06T12:55:16;3.88;;;0.50;;
35644;SDS011;21764;52.042;6.830;2022-07-06T13:00:17;5.22;;;0.70;;
35644;SDS011;21764;52.042;6.830;2022-07-06T13:05:18;2.00;;;0.50;;
35644;SDS011;21764;52.042;6.830;2022-07-06T13:10:27;3.45;;;0.55;;
35644;SDS011;21764;52.042;6.830;2022-07-06T13:15:30;3.92;;;0.68;;
35644;SDS011;21764;52.042;6.830;2022-07-06T13:20:31;4.18;;;0.70;;
35644;SDS011;21764;52.042;6.830;2022-07-06T13:25:31;1.52;;;0.60;;
35644;SDS011;21764;52.042;6.830;2022-07-06T13:30:32;2.28;;;0.60;;
35644;SDS011;21764;52.042;6.830;2022-07-06T13:35:33;1.17;;;0.50;;
35644;SDS011;21764;52.042;6.830;2022-07-06T13:40:33;2.00;;;0.47;;
35644;SDS011;21764;52.042;6.830;2022-07-06T13:45:35;4.43;;;0.90;;
35644;SDS011;21764;52.042;6.830;2022-07-06T13:50:36;4.07;;;0.98;;
35644;SDS011;21764;52.042;6.830;2022-07-06T13:55:37;3.05;;;0.60;;
35644;SDS011;21764;52.042;6.830;2022-07-06T14:00:38;1.73;;;0.40;;
35644;SDS011;21764;52.042;6.830;2022-07-06T14:05:39;4.28;;;0.60;;
35644;SDS011;21764;52.042;6.830;2022-07-06T14:10:39;7.00;;;0.88;;
35644;SDS011;21764;52.042;6.830;2022-07-06T14:15:40;4.07;;;0.70;;
35644;SDS011;21764;52.042;6.830;2022-07-06T14:20:40;2.58;;;1.00;;
35644;SDS011;21764;52.042;6.830;2022-07-06T14:25:42;2.70;;;0.80;;
35644;SDS011;21764;52.042;6.830;2022-07-06T14:30:43;3.42;;;1.00;;
35644;SDS011;21764;52.042;6.830;2022-07-06T14:35:46;2.17;;;0.75;;
35644;SDS011;21764;52.042;6.830;2022-07-06T14:40:47;2.88;;;0.70;;
35644;SDS011;21764;52.042;6.830;2022-07-06T14:45:49;8.25;;;0.80;;
35644;SDS011;21764;52.042;6.830;2022-07-06T14:50:50;2.80;;;0.88;;
35644;SDS011;21764;52.042;6.830;2022-07-06T14:55:51;3.22;;;0.50;;
35644;SDS011;21764;52.042;6.830;2022-07-06T15:00:52;10.02;;;1.05;;
35644;SDS011;21764;52.042;6.830;2022-07-06T15:05:53;6.30;;;0.73;;
35644;SDS011;21764;52.042;6.830;2022-07-06T15:10:54;6.68;;;1.20;;
35644;SDS011;21764;52.042;6.830;2022-07-06T15:15:54;5.28;;;1.02;;
35644;SDS011;21764;52.042;6.830;2022-07-06T15:20:55;3.85;;;0.77;;
35644;SDS011;21764;52.042;6.830;2022-07-06T15:25:56;6.53;;;1.08;;
35644;SDS011;21764;52.042;6.830;2022-07-06T15:30:57;5.75;;;1.60;;
35644;SDS011;21764;52.042;6.830;2022-07-06T15:35:57;3.53;;;0.90;;
35644;SDS011;21764;52.042;6.830;2022-07-06T15:40:58;5.78;;;0.90;;
35644;SDS011;21764;52.042;6.830;2022-07-06T15:46:02;5.63;;;0.90;;
35644;SDS011;21764;52.042;6.830;2022-07-06T15:51:03;2.60;;;0.73;;
35644;SDS011;21764;52.042;6.830;2022-07-06T15:56:04;8.43;;;1.17;;
35644;SDS011;21764;52.042;6.830;2022-07-06T16:01:05;3.67;;;1.00;;
35644;SDS011;21764;52.042;6.830;2022-07-06T16:06:05;5.00;;;1.23;;
35644;SDS011;21764;52.042;6.830;2022-07-06T16:11:07;3.80;;;0.90;;
35644;SDS011;21764;52.042;6.830;2022-07-06T16:16:07;3.00;;;0.93;;
35644;SDS011;21764;52.042;6.830;2022-07-06T16:21:09;3.63;;;1.35;;
35644;SDS011;21764;52.042;6.830;2022-07-06T16:26:10;4.45;;;0.95;;
35644;SDS011;21764;52.042;6.830;2022-07-06T16:31:10;7.00;;;1.42;;
35644;SDS011;21764;52.042;6.830;2022-07-06T16:36:11;3.65;;;1.27;;
35644;SDS011;21764;52.042;6.830;2022-07-06T16:41:15;4.47;;;1.00;;
35644;SDS011;21764;52.042;6.830;2022-07-06T16:46:15;8.40;;;0.80;;
35644;SDS011;21764;52.042;6.830;2022-07-06T16:51:16;4.50;;;1.00;;
35644;SDS011;21764;52.042;6.830;2022-07-06T16:56:17;7.70;;;1.42;;
35644;SDS011;21764;52.042;6.830;2022-07-06T17:01:17;4.63;;;1.30;;
35644;SDS011;21764;52.042;6.830;2022-07-06T17:06:18;3.53;;;0.98;;
35644;SDS011;21764;52.042;6.830;2022-07-06T17:11:20;5.05;;;0.93;;
35644;SDS011;21764;52.042;6.830;2022-07-06T17:16:20;2.75;;;1.17;;
35644;SDS011;21764;52.042;6.830;2022-07-06T17:21:21;5.63;;;0.90;;
35644;SDS011;21764;52.042;6.830;2022-07-06T17:26:22;12.35;;;1.60;;
35644;SDS011;21764;52.042;6.830;2022-07-06T17:31:23;4.35;;;1.30;;
35644;SDS011;21764;52.042;6.830;2022-07-06T17:36:24;8.82;;;1.10;;
35644;SDS011;21764;52.042;6.830;2022-07-06T17:41:26;9.63;;;1.52;;
35644;SDS011;21764;52.042;6.830;2022-07-06T17:46:26;7.30;;;1.42;;
35644;SDS011;21764;52.042;6.830;2022-07-06T17:51:27;4.15;;;1.63;;
35644;SDS011;21764;52.042;6.830;2022-07-06T17:56:28;5.95;;;1.40;;
35644;SDS011;21764;52.042;6.830;2022-07-06T18:01:29;5.82;;;1.67;;
35644;SDS011;21764;52.042;6.830;2022-07-06T18:06:30;4.50;;;1.60;;
35644;SDS011;21764;52.042;6.830;2022-07-06T18:11:30;6.03;;;1.63;;
35644;SDS011;21764;52.042;6.830;2022-07-06T18:16:31;7.32;;;2.13;;
35644;SDS011;21764;52.042;6.830;2022-07-06T18:21:32;8.05;;;2.13;;
35644;SDS011;21764;52.042;6.830;2022-07-06T18:26:33;6.55;;;2.20;;
35644;SDS011;21764;52.042;6.830;2022-07-06T18:31:33;10.05;;;2.25;;
35644;SDS011;21764;52.042;6.830;2022-07-06T18:36:34;9.98;;;2.50;;
35644;SDS011;21764;52.042;6.830;2022-07-06T18:41:35;6.70;;;2.75;;
35644;SDS011;21764;52.042;6.830;2022-07-06T18:46:36;8.85;;;2.47;;
35644;SDS011;21764;52.042;6.830;2022-07-06T18:51:37;7.63;;;2.35;;
35644;SDS011;21764;52.042;6.830;2022-07-06T18:56:37;5.70;;;1.90;;
35644;SDS011;21764;52.042;6.830;2022-07-06T19:01:38;6.47;;;1.80;;
35644;SDS011;21764;52.042;6.830;2022-07-06T19:06:39;7.70;;;2.15;;
35644;SDS011;21764;52.042;6.830;2022-07-06T19:11:40;7.35;;;2.40;;
35644;SDS011;21764;52.042;6.830;2022-07-06T19:16:40;8.45;;;2.35;;
35644;SDS011;21764;52.042;6.830;2022-07-06T19:21:41;7.85;;;2.03;;
35644;SDS011;21764;52.042;6.830;2022-07-06T19:26:41;9.57;;;2.30;;
35644;SDS011;21764;52.042;6.830;2022-07-06T19:31:42;10.38;;;2.17;;
35644;SDS011;21764;52.042;6.830;2022-07-06T19:36:43;5.93;;;2.05;;
35644;SDS011;21764;52.042;6.830;2022-07-06T19:41:44;5.10;;;2.42;;
35644;SDS011;21764;52.042;6.830;2022-07-06T19:46:45;5.90;;;2.10;;
35644;SDS011;21764;52.042;6.830;2022-07-06T19:51:46;8.25;;;2.75;;
35644;SDS011;21764;52.042;6.830;2022-07-06T19:56:47;11.77;;;2.50;;
35644;SDS011;21764;52.042;6.830;2022-07-06T20:01:47;12.23;;;2.53;;
35644;SDS011;21764;52.042;6.830;2022-07-06T20:06:48;7.18;;;2.20;;
35644;SDS011;21764;52.042;6.830;2022-07-06T20:11:49;10.05;;;3.10;;
35644;SDS011;21764;52.042;6.830;2022-07-06T20:16:50;9.23;;;2.88;;
35644;SDS011;21764;52.042;6.830;2022-07-06T20:21:52;9.80;;;2.88;;
35644;SDS011;21764;52.042;6.830;2022-07-06T20:26:53;14.55;;;3.08;;
35644;SDS011;21764;52.042;6.830;2022-07-06T20:31:54;13.80;;;3.05;;
35644;SDS011;21764;52.042;6.830;2022-07-06T20:36:55;14.30;;;3.42;;
35644;SDS011;21764;52.042;6.830;2022-07-06T20:41:55;7.63;;;3.03;;
35644;SDS011;21764;52.042;6.830;2022-07-06T20:46:56;11.38;;;3.40;;
35644;SDS011;21764;52.042;6.830;2022-07-06T20:51:56;9.52;;;3.25;;
35644;SDS011;21764;52.042;6.830;2022-07-06T20:56:57;9.57;;;2.97;;
35644;SDS011;21764;52.042;6.830;2022-07-06T21:01:58;8.65;;;2.60;;
35644;SDS011;21764;52.042;6.830;2022-07-06T21:06:59;8.80;;;3.05;;
35644;SDS011;21764;52.042;6.830;2022-07-06T21:12:00;7.40;;;2.97;;
35644;SDS011;21764;52.042;6.830;2022-07-06T21:17:01;4.93;;;2.70;;
35644;SDS011;21764;52.042;6.830;2022-07-06T21:22:02;5.40;;;2.88;;
35644;SDS011;21764;52.042;6.830;2022-07-06T21:27:03;10.02;;;3.40;;
35644;SDS011;21764;52.042;6.830;2022-07-06T21:32:04;10.73;;;3.55;;
35644;SDS011;21764;52.042;6.830;2022-07-06T21:37:05;9.93;;;3.45;;
35644;SDS011;21764;52.042;6.830;2022-07-06T21:42:05;8.70;;;2.97;;
35644;SDS011;21764;52.042;6.830;2022-07-06T21:47:06;9.10;;;3.38;;
35644;SDS011;21764;52.042;6.830;2022-07-06T21:52:07;12.90;;;4.07;;
35644;SDS011;21764;52.042;6.830;2022-07-06T21:57:07;13.82;;;4.00;;
35644;SDS011;21764;52.042;6.830;2022-07-06T22:02:09;9.63;;;3.58;;
35644;SDS011;21764;52.042;6.830;2022-07-06T22:07:09;10.40;;;3.55;;
35644;SDS011;21764;52.042;6.830;2022-07-06T22:12:10;6.97;;;4.28;;
35644;SDS011;21764;52.042;6.830;2022-07-06T22:17:10;11.00;;;4.35;;
35644;SDS011;21764;52.042;6.830;2022-07-06T22:22:11;5.57;;;4.35;;
35644;SDS011;21764;52.042;6.830;2022-07-06T22:27:12;8.32;;;4.35;;
35644;SDS011;21764;52.042;6.830;2022-07-06T22:32:13;11.38;;;4.75;;
35644;SDS011;21764;52.042;6.830;2022-07-06T22:37:14;10.55;;;3.83;;
35644;SDS011;21764;52.042;6.830;2022-07-06T22:42:14;12.10;;;4.18;;
35644;SDS011;21764;52.042;6.830;2022-07-06T22:47:15;10.52;;;3.92;;
35644;SDS011;21764;52.042;6.830;2022-07-06T22:52:16;11.90;;;4.13;;
35644;SDS011;21764;52.042;6.830;2022-07-06T22:57:16;8.48;;;3.83;;
35644;SDS011;21764;52.042;6.830;2022-07-06T23:02:17;11.70;;;3.92;;
35644;SDS011;21764;52.042;6.830;2022-07-06T23:07:17;9.95;;;4.63;;
35644;SDS011;21764;52.042;6.830;2022-07-06T23:12:18;11.05;;;4.70;;
35644;SDS011;21764;52.042;6.830;2022-07-06T23:17:19;9.75;;;4.47;;
35644;SDS011;21764;52.042;6.830;2022-07-06T23:22:19;7.80;;;4.35;;
35644;SDS011;21764;52.042;6.830;2022-07-06T23:27:20;17.35;;;5.18;;
35644;SDS011;21764;52.042;6.830;2022-07-06T23:32:21;13.77;;;4.90;;
35644;SDS011;21764;52.042;6.830;2022-07-06T23:37:21;11.55;;;4.93;;
35644;SDS011;21764;52.042;6.830;2022-07-06T23:42:22;11.00;;;5.18;;
35644;SDS011;21764;52.042;6.830;2022-07-06T23:47:23;9.15;;;5.75;;
35644;SDS011;21764;52.042;6.830;2022-07-06T23:52:23;8.73;;;5.03;;
35644;SDS011;21764;52.042;6.830;2022-07-06T23:57:24;12.35;;;4.40;;
